sensor_id;sensor_type;location;lat;lon;timestamp;pressure;altitude;pressure_sealevel;temperature;humidity
39267;BME280;24967;51.154;13.812;2023-08-06T00:00:13;98727.88;;;19.21;76.04
39267;BME280;24967;51.154;13.812;2023-08-06T00:02:42;98716.00;;;19.10;76.57
39267;BME280;24967;51.154;13.812;2023-08-06T00:05:09;98714.56;;;19.08;76.87
39267;BME280;24967;51.154;13.812;2023-08-06T00:07:36;98719.28;;;19.12;76.77
39267;BME280;24967;51.154;13.812;2023-08-06T00:10:04;98700.88;;;19.09;77.23
39267;BME280;24967;51.154;13.812;2023-08-06T00:12:31;98690.84;;;19.16;77.11
39267;BME280;24967;51.154;13.812;2023-08-06T00:15:10;98694.34;;;19.17;77.09
39267;BME280;24967;51.154;13.812;2023-08-06T00:17:38;98680.06;;;19.16;77.06
39267;BME280;24967;51.154;13.812;2023-08-06T00:20:08;98679.59;;;19.19;77.14
39267;BME280;24967;51.154;13.812;2023-08-06T00:22:35;98671.28;;;19.21;76.93
39267;BME280;24967;51.154;13.812;2023-08-06T00:25:06;98670.81;;;19.24;76.98
39267;BME280;24967;51.154;13.812;2023-08-06T00:27:34;98668.84;;;19.19;76.87
39267;BME280;24967;51.154;13.812;2023-08-06T00:30:01;98668.03;;;19.19;76.92
39267;BME280;24967;51.154;13.812;2023-08-06T00:32:28;98668.22;;;19.17;76.96
39267;BME280;24967;51.154;13.812;2023-08-06T00:34:55;98666.34;;;19.18;76.94
39267;BME280;24967;51.154;13.812;2023-08-06T00:37:25;98670.91;;;19.17;76.92
39267;BME280;24967;51.154;13.812;2023-08-06T00:39:52;98662.84;;;19.17;77.00
39267;BME280;24967;51.154;13.812;2023-08-06T00:42:19;98663.09;;;19.16;76.87
39267;BME280;24967;51.154;13.812;2023-08-06T00:44:47;98664.56;;;19.12;77.02
39267;BME280;24967;51.154;13.812;2023-08-06T00:47:15;98657.53;;;19.11;77.24
39267;BME280;24967;51.154;13.812;2023-08-06T00:49:42;98657.53;;;19.11;77.20
39267;BME280;24967;51.154;13.812;2023-08-06T00:52:10;98656.13;;;19.08;77.22
39267;BME280;24967;51.154;13.812;2023-08-06T00:54:40;98658.81;;;19.08;77.18
39267;BME280;24967;51.154;13.812;2023-08-06T00:57:08;98654.25;;;19.09;77.14
39267;BME280;24967;51.154;13.812;2023-08-06T00:59:36;98649.56;;;19.04;77.26
39267;BME280;24967;51.154;13.812;2023-08-06T01:02:04;98650.97;;;19.07;77.11
39267;BME280;24967;51.154;13.812;2023-08-06T01:04:30;98651.66;;;19.02;77.16
39267;BME280;24967;51.154;13.812;2023-08-06T01:07:01;98653.59;;;18.95;77.33
39267;BME280;24967;51.154;13.812;2023-08-06T01:09:31;98649.34;;;18.87;77.60
39267;BME280;24967;51.154;13.812;2023-08-06T01:12:05;98635.31;;;18.85;77.76
39267;BME280;24967;51.154;13.812;2023-08-06T01:14:34;98634.44;;;18.85;77.84
39267;BME280;24967;51.154;13.812;2023-08-06T01:17:04;98629.69;;;18.87;77.88
39267;BME280;24967;51.154;13.812;2023-08-06T01:19:32;98622.06;;;18.84;78.04
39267;BME280;24967;51.154;13.812;2023-08-06T01:22:00;98617.81;;;18.76;78.33
39267;BME280;24967;51.154;13.812;2023-08-06T01:24:28;98617.81;;;18.76;78.48
39267;BME280;24967;51.154;13.812;2023-08-06T01:26:57;98602.47;;;18.76;78.42
39267;BME280;24967;51.154;13.812;2023-08-06T01:29:28;98604.72;;;18.80;78.47
39267;BME280;24967;51.154;13.812;2023-08-06T01:31:58;98603.44;;;18.82;78.34
39267;BME280;24967;51.154;13.812;2023-08-06T01:34:27;98592.66;;;18.82;78.35
39267;BME280;24967;51.154;13.812;2023-08-06T01:36:54;98586.44;;;18.82;78.19
39267;BME280;24967;51.154;13.812;2023-08-06T01:42:26;98570.69;;;18.85;78.03
39267;BME280;24967;51.154;13.812;2023-08-06T01:44:54;98570.69;;;18.85;77.77
39267;BME280;24967;51.154;13.812;2023-08-06T01:47:21;98563.06;;;18.82;78.10
39267;BME280;24967;51.154;13.812;2023-08-06T01:49:48;98564.91;;;18.82;78.19
39267;BME280;24967;51.154;13.812;2023-08-06T01:52:16;98570.53;;;18.80;78.04
39267;BME280;24967;51.154;13.812;2023-08-06T01:54:43;98572.88;;;18.76;78.23
39267;BME280;24967;51.154;13.812;2023-08-06T01:57:10;98575.47;;;18.83;78.09
39267;BME280;24967;51.154;13.812;2023-08-06T01:59:39;98582.13;;;18.81;78.29
39267;BME280;24967;51.154;13.812;2023-08-06T02:02:07;98582.13;;;18.81;78.16
39267;BME280;24967;51.154;13.812;2023-08-06T02:04:34;98574.41;;;18.84;78.50
39267;BME280;24967;51.154;13.812;2023-08-06T02:07:01;98583.28;;;18.85;78.69
39267;BME280;24967;51.154;13.812;2023-08-06T02:09:28;98581.06;;;18.82;78.71
39267;BME280;24967;51.154;13.812;2023-08-06T02:11:55;98586.13;;;18.71;79.35
39267;BME280;24967;51.154;13.812;2023-08-06T02:14:23;98597.06;;;18.58;80.32
39267;BME280;24967;51.154;13.812;2023-08-06T02:16:51;98600.66;;;18.52;80.83
39267;BME280;24967;51.154;13.812;2023-08-06T02:19:18;98594.75;;;18.43;81.29
39267;BME280;24967;51.154;13.812;2023-08-06T02:21:46;98600.72;;;18.45;81.74
39267;BME280;24967;51.154;13.812;2023-08-06T02:24:13;98591.53;;;18.53;81.62
39267;BME280;24967;51.154;13.812;2023-08-06T02:26:40;98597.66;;;18.60;81.61
39267;BME280;24967;51.154;13.812;2023-08-06T02:29:07;98584.81;;;18.62;81.52
39267;BME280;24967;51.154;13.812;2023-08-06T02:31:35;98592.44;;;18.65;81.49
39267;BME280;24967;51.154;13.812;2023-08-06T02:34:04;98586.59;;;18.68;81.30
39267;BME280;24967;51.154;13.812;2023-08-06T02:36:31;98589.06;;;18.70;81.33
39267;BME280;24967;51.154;13.812;2023-08-06T02:38:59;98586.13;;;18.71;81.25
39267;BME280;24967;51.154;13.812;2023-08-06T02:41:26;98587.22;;;18.52;81.87
39267;BME280;24967;51.154;13.812;2023-08-06T02:43:54;98579.13;;;18.70;81.11
39267;BME280;24967;51.154;13.812;2023-08-06T02:46:21;98578.97;;;18.65;81.28
39267;BME280;24967;51.154;13.812;2023-08-06T02:48:48;98571.09;;;18.64;81.44
39267;BME280;24967;51.154;13.812;2023-08-06T02:51:17;98565.88;;;18.69;81.22
39267;BME280;24967;51.154;13.812;2023-08-06T02:53:44;98570.00;;;18.71;81.27
39267;BME280;24967;51.154;13.812;2023-08-06T02:56:12;98567.13;;;18.66;81.26
39267;BME280;24967;51.154;13.812;2023-08-06T02:58:39;98547.94;;;18.63;81.51
39267;BME280;24967;51.154;13.812;2023-08-06T03:01:07;98554.06;;;18.51;82.05
39267;BME280;24967;51.154;13.812;2023-08-06T03:03:34;98548.25;;;18.54;82.19
39267;BME280;24967;51.154;13.812;2023-08-06T03:06:01;98539.81;;;18.51;82.38
39267;BME280;24967;51.154;13.812;2023-08-06T03:08:30;98539.59;;;18.52;82.27
39267;BME280;24967;51.154;13.812;2023-08-06T03:10:57;98533.81;;;18.67;81.37
39267;BME280;24967;51.154;13.812;2023-08-06T03:13:24;98539.41;;;18.66;81.46
39267;BME280;24967;51.154;13.812;2023-08-06T03:15:52;98538.31;;;18.55;81.79
39267;BME280;24967;51.154;13.812;2023-08-06T03:18:19;98525.06;;;18.53;82.07
39267;BME280;24967;51.154;13.812;2023-08-06T03:20:47;98527.41;;;18.50;82.15
39267;BME280;24967;51.154;13.812;2023-08-06T03:23:14;98524.25;;;18.53;82.11
39267;BME280;24967;51.154;13.812;2023-08-06T03:25:43;98523.81;;;18.56;81.97
39267;BME280;24967;51.154;13.812;2023-08-06T03:28:10;98522.84;;;18.50;82.04
39267;BME280;24967;51.154;13.812;2023-08-06T03:30:37;98518.41;;;18.56;82.13
39267;BME280;24967;51.154;13.812;2023-08-06T03:33:05;98510.91;;;18.46;82.08
39267;BME280;24967;51.154;13.812;2023-08-06T03:35:32;98510.00;;;18.52;82.33
39267;BME280;24967;51.154;13.812;2023-08-06T03:37:59;98503.09;;;18.57;82.32
39267;BME280;24967;51.154;13.812;2023-08-06T03:40:26;98506.75;;;18.62;81.49
39267;BME280;24967;51.154;13.812;2023-08-06T03:42:55;98495.84;;;18.57;81.84
39267;BME280;24967;51.154;13.812;2023-08-06T03:45:22;98490.44;;;18.57;81.95
39267;BME280;24967;51.154;13.812;2023-08-06T03:47:49;98495.63;;;18.59;81.79
39267;BME280;24967;51.154;13.812;2023-08-06T03:50:17;98488.13;;;18.61;81.80
39267;BME280;24967;51.154;13.812;2023-08-06T03:52:44;98484.16;;;18.63;81.65
39267;BME280;24967;51.154;13.812;2023-08-06T03:55:12;98483.19;;;18.58;81.43
39267;BME280;24967;51.154;13.812;2023-08-06T03:57:39;98483.34;;;18.63;81.47
39267;BME280;24967;51.154;13.812;2023-08-06T04:00:08;98482.72;;;18.61;81.44
39267;BME280;24967;51.154;13.812;2023-08-06T04:02:36;98477.81;;;18.58;81.38
39267;BME280;24967;51.154;13.812;2023-08-06T04:05:03;98474.19;;;18.52;81.79
39267;BME280;24967;51.154;13.812;2023-08-06T04:07:31;98472.81;;;18.61;81.60
39267;BME280;24967;51.154;13.812;2023-08-06T04:09:59;98465.06;;;18.53;81.62
39267;BME280;24967;51.154;13.812;2023-08-06T04:12:26;98457.34;;;18.57;81.57
39267;BME280;24967;51.154;13.812;2023-08-06T04:14:54;98456.28;;;18.58;81.38
39267;BME280;24967;51.154;13.812;2023-08-06T04:17:23;98449.50;;;18.55;81.59
39267;BME280;24967;51.154;13.812;2023-08-06T04:19:51;98442.81;;;18.58;81.64
39267;BME280;24967;51.154;13.812;2023-08-06T04:22:18;98441.19;;;18.57;81.52
39267;BME280;24967;51.154;13.812;2023-08-06T04:24:46;98442.59;;;18.59;81.75
39267;BME280;24967;51.154;13.812;2023-08-06T04:27:13;98444.59;;;18.64;81.26
39267;BME280;24967;51.154;13.812;2023-08-06T04:29:41;98448.59;;;18.61;81.19
39267;BME280;24967;51.154;13.812;2023-08-06T04:32:09;98445.31;;;18.59;81.27
39267;BME280;24967;51.154;13.812;2023-08-06T04:34:38;98437.22;;;18.59;81.34
39267;BME280;24967;51.154;13.812;2023-08-06T04:37:05;98431.03;;;18.59;81.07
39267;BME280;24967;51.154;13.812;2023-08-06T04:39:33;98429.16;;;18.59;81.18
39267;BME280;24967;51.154;13.812;2023-08-06T04:42:00;98427.28;;;18.60;81.11
39267;BME280;24967;51.154;13.812;2023-08-06T04:44:27;98435.59;;;18.58;81.21
39267;BME280;24967;51.154;13.812;2023-08-06T04:46:54;98430.78;;;18.60;81.30
39267;BME280;24967;51.154;13.812;2023-08-06T04:49:21;98418.13;;;18.61;81.17
39267;BME280;24967;51.154;13.812;2023-08-06T04:51:50;98416.28;;;18.61;81.23
39267;BME280;24967;51.154;13.812;2023-08-06T04:54:17;98416.28;;;18.61;81.12
39267;BME280;24967;51.154;13.812;2023-08-06T04:56:44;98418.75;;;18.63;81.34
39267;BME280;24967;51.154;13.812;2023-08-06T04:59:11;98413.97;;;18.65;81.17
39267;BME280;24967;51.154;13.812;2023-08-06T05:01:38;98408.94;;;18.68;81.28
39267;BME280;24967;51.154;13.812;2023-08-06T05:04:06;98409.53;;;18.70;81.23
39267;BME280;24967;51.154;13.812;2023-08-06T05:06:33;98406.59;;;18.72;81.33
39267;BME280;24967;51.154;13.812;2023-08-06T05:09:02;98410.97;;;18.73;81.33
39267;BME280;24967;51.154;13.812;2023-08-06T05:11:29;98408.28;;;18.73;81.42
39267;BME280;24967;51.154;13.812;2023-08-06T05:13:56;98408.84;;;18.75;81.34
39267;BME280;24967;51.154;13.812;2023-08-06T05:16:24;98405.59;;;18.73;81.50
39267;BME280;24967;51.154;13.812;2023-08-06T05:18:51;98399.97;;;18.74;81.41
39267;BME280;24967;51.154;13.812;2023-08-06T05:21:18;98396.22;;;18.75;81.53
39267;BME280;24967;51.154;13.812;2023-08-06T05:23:45;98391.44;;;18.77;81.51
39267;BME280;24967;51.154;13.812;2023-08-06T05:26:14;98393.91;;;18.79;81.61
39267;BME280;24967;51.154;13.812;2023-08-06T05:28:43;98398.81;;;18.82;81.36
39267;BME280;24967;51.154;13.812;2023-08-06T05:31:11;98394.00;;;18.84;81.39
39267;BME280;24967;51.154;13.812;2023-08-06T05:33:39;98392.97;;;18.85;81.30
39267;BME280;24967;51.154;13.812;2023-08-06T05:36:06;98391.44;;;18.89;81.35
39267;BME280;24967;51.154;13.812;2023-08-06T05:38:33;98386.88;;;18.90;81.29
39267;BME280;24967;51.154;13.812;2023-08-06T05:41:01;98382.22;;;18.85;81.38
39267;BME280;24967;51.154;13.812;2023-08-06T05:43:29;98383.50;;;18.94;81.33
39267;BME280;24967;51.154;13.812;2023-08-06T05:45:56;98382.91;;;18.92;81.18
39267;BME280;24967;51.154;13.812;2023-08-06T05:48:24;98381.16;;;18.86;81.32
39267;BME280;24967;51.154;13.812;2023-08-06T05:50:53;98378.69;;;18.73;82.52
39267;BME280;24967;51.154;13.812;2023-08-06T05:53:20;98382.19;;;18.73;82.58
39267;BME280;24967;51.154;13.812;2023-08-06T05:55:48;98383.03;;;18.86;82.29
39267;BME280;24967;51.154;13.812;2023-08-06T05:58:15;98376.47;;;18.93;82.20
39267;BME280;24967;51.154;13.812;2023-08-06T06:00:44;98378.34;;;18.93;81.92
39267;BME280;24967;51.154;13.812;2023-08-06T06:03:11;98384.72;;;18.68;83.43
39267;BME280;24967;51.154;13.812;2023-08-06T06:05:39;98388.75;;;18.89;82.80
39267;BME280;24967;51.154;13.812;2023-08-06T06:08:06;98393.69;;;18.92;82.48
39267;BME280;24967;51.154;13.812;2023-08-06T06:10:34;98386.53;;;18.98;82.16
39267;BME280;24967;51.154;13.812;2023-08-06T06:13:02;98384.19;;;19.02;81.79
39267;BME280;24967;51.154;13.812;2023-08-06T06:15:29;98377.75;;;19.03;81.86
39267;BME280;24967;51.154;13.812;2023-08-06T06:17:58;98372.97;;;19.16;81.30
39267;BME280;24967;51.154;13.812;2023-08-06T06:20:25;98382.13;;;19.15;80.89
39267;BME280;24967;51.154;13.812;2023-08-06T06:22:52;98384.81;;;19.15;80.93
39267;BME280;24967;51.154;13.812;2023-08-06T06:25:19;98382.81;;;19.11;81.08
39267;BME280;24967;51.154;13.812;2023-08-06T06:27:47;98391.00;;;19.04;81.45
39267;BME280;24967;51.154;13.812;2023-08-06T06:30:14;98385.50;;;19.11;80.98
39267;BME280;24967;51.154;13.812;2023-08-06T06:32:42;98383.47;;;18.83;82.49
39267;BME280;24967;51.154;13.812;2023-08-06T06:35:11;98384.16;;;18.78;83.27
39267;BME280;24967;51.154;13.812;2023-08-06T06:37:38;98378.44;;;18.74;83.42
39267;BME280;24967;51.154;13.812;2023-08-06T06:40:05;98382.22;;;18.67;84.76
39267;BME280;24967;51.154;13.812;2023-08-06T06:45:25;98377.06;;;18.95;82.60
39267;BME280;24967;51.154;13.812;2023-08-06T06:47:52;98376.34;;;19.12;81.46
39267;BME280;24967;51.154;13.812;2023-08-06T06:50:21;98385.25;;;18.89;83.05
39267;BME280;24967;51.154;13.812;2023-08-06T06:52:48;98394.50;;;18.93;83.65
39267;BME280;24967;51.154;13.812;2023-08-06T06:55:15;98390.06;;;19.10;83.09
39267;BME280;24967;51.154;13.812;2023-08-06T06:57:42;98386.09;;;19.13;81.54
39267;BME280;24967;51.154;13.812;2023-08-06T07:00:25;98393.78;;;18.86;83.17
39267;BME280;24967;51.154;13.812;2023-08-06T07:02:52;98391.34;;;18.54;85.23
39267;BME280;24967;51.154;13.812;2023-08-06T07:05:21;98392.13;;;18.85;83.80
39267;BME280;24967;51.154;13.812;2023-08-06T07:07:48;98378.78;;;18.78;84.20
39267;BME280;24967;51.154;13.812;2023-08-06T07:10:16;98387.00;;;18.95;83.76
39267;BME280;24967;51.154;13.812;2023-08-06T07:12:43;98391.00;;;19.04;82.76
39267;BME280;24967;51.154;13.812;2023-08-06T07:15:09;98384.81;;;19.04;83.37
39267;BME280;24967;51.154;13.812;2023-08-06T07:17:36;98399.06;;;19.04;82.65
39267;BME280;24967;51.154;13.812;2023-08-06T07:20:02;98397.69;;;19.13;82.11
39267;BME280;24967;51.154;13.812;2023-08-06T07:22:30;98395.56;;;19.04;83.03
39267;BME280;24967;51.154;13.812;2023-08-06T07:24:57;98392.28;;;19.13;83.67
39267;BME280;24967;51.154;13.812;2023-08-06T07:27:23;98395.44;;;19.10;84.56
39267;BME280;24967;51.154;13.812;2023-08-06T07:29:50;98393.94;;;19.26;82.88
39267;BME280;24967;51.154;13.812;2023-08-06T07:32:16;98387.72;;;19.26;82.71
39267;BME280;24967;51.154;13.812;2023-08-06T07:34:42;98378.47;;;18.98;84.52
39267;BME280;24967;51.154;13.812;2023-08-06T07:37:09;98386.91;;;19.37;83.45
39267;BME280;24967;51.154;13.812;2023-08-06T07:39:37;98389.47;;;19.32;83.95
39267;BME280;24967;51.154;13.812;2023-08-06T07:42:04;98384.91;;;19.09;82.77
39267;BME280;24967;51.154;13.812;2023-08-06T07:44:32;98384.91;;;18.85;83.37
39267;BME280;24967;51.154;13.812;2023-08-06T07:46:58;98382.19;;;19.09;83.52
39267;BME280;24967;51.154;13.812;2023-08-06T07:49:24;98373.91;;;19.10;82.49
39267;BME280;24967;51.154;13.812;2023-08-06T07:51:51;98377.16;;;19.24;82.76
39267;BME280;24967;51.154;13.812;2023-08-06T07:54:18;98376.47;;;19.17;83.18
39267;BME280;24967;51.154;13.812;2023-08-06T07:56:45;98376.91;;;18.90;84.39
39267;BME280;24967;51.154;13.812;2023-08-06T07:59:12;98374.38;;;18.95;85.28
39267;BME280;24967;51.154;13.812;2023-08-06T08:01:38;98376.94;;;19.14;84.72
39267;BME280;24967;51.154;13.812;2023-08-06T08:04:04;98376.22;;;18.83;87.26
39267;BME280;24967;51.154;13.812;2023-08-06T08:06:31;98371.66;;;18.95;86.01
39267;BME280;24967;51.154;13.812;2023-08-06T08:08:57;98359.50;;;19.05;86.22
39267;BME280;24967;51.154;13.812;2023-08-06T08:11:23;98356.47;;;19.01;86.68
39267;BME280;24967;51.154;13.812;2023-08-06T08:13:51;98355.28;;;19.09;85.49
39267;BME280;24967;51.154;13.812;2023-08-06T08:16:23;98363.00;;;19.05;85.36
39267;BME280;24967;51.154;13.812;2023-08-06T08:18:58;98346.75;;;18.88;85.63
39267;BME280;24967;51.154;13.812;2023-08-06T08:21:38;98351.19;;;18.83;87.07
39267;BME280;24967;51.154;13.812;2023-08-06T08:24:07;98343.00;;;19.01;86.70
39267;BME280;24967;51.154;13.812;2023-08-06T08:26:39;98345.97;;;18.69;89.89
39267;BME280;24967;51.154;13.812;2023-08-06T08:29:07;98336.66;;;18.84;88.97
39267;BME280;24967;51.154;13.812;2023-08-06T08:31:37;98333.63;;;18.80;86.91
39267;BME280;24967;51.154;13.812;2023-08-06T08:34:09;98340.56;;;18.69;88.72
39267;BME280;24967;51.154;13.812;2023-08-06T08:36:43;98323.34;;;18.47;90.61
39267;BME280;24967;51.154;13.812;2023-08-06T08:42:20;98321.00;;;18.08;92.49
39267;BME280;24967;51.154;13.812;2023-08-06T08:44:50;98314.59;;;18.10;92.91
39267;BME280;24967;51.154;13.812;2023-08-06T08:47:20;98314.50;;;18.16;92.15
39267;BME280;24967;51.154;13.812;2023-08-06T08:49:54;98315.00;;;18.25;93.39
39267;BME280;24967;51.154;13.812;2023-08-06T08:52:30;98311.16;;;18.33;92.10
39267;BME280;24967;51.154;13.812;2023-08-06T08:55:01;98313.16;;;17.95;92.64
39267;BME280;24967;51.154;13.812;2023-08-06T08:57:42;98312.41;;;17.70;93.35
39267;BME280;24967;51.154;13.812;2023-08-06T09:00:11;98318.84;;;17.69;93.36
39267;BME280;24967;51.154;13.812;2023-08-06T09:02:40;98316.50;;;17.91;92.83
39267;BME280;24967;51.154;13.812;2023-08-06T09:05:08;98307.47;;;17.85;92.54
39267;BME280;24967;51.154;13.812;2023-08-06T09:07:40;98306.38;;;17.56;93.44
39267;BME280;24967;51.154;13.812;2023-08-06T09:10:10;98305.06;;;17.95;90.86
39267;BME280;24967;51.154;13.812;2023-08-06T09:12:43;98313.47;;;17.69;92.71
39267;BME280;24967;51.154;13.812;2023-08-06T09:15:11;98313.53;;;17.80;93.05
39267;BME280;24967;51.154;13.812;2023-08-06T09:17:38;98305.53;;;17.74;93.44
39267;BME280;24967;51.154;13.812;2023-08-06T09:20:11;98306.91;;;17.65;93.98
39267;BME280;24967;51.154;13.812;2023-08-06T09:22:39;98305.34;;;17.57;95.80
39267;BME280;24967;51.154;13.812;2023-08-06T09:25:06;98300.25;;;17.85;94.91
39267;BME280;24967;51.154;13.812;2023-08-06T09:27:35;98297.47;;;17.92;93.49
39267;BME280;24967;51.154;13.812;2023-08-06T09:30:09;98303.72;;;18.04;92.59
39267;BME280;24967;51.154;13.812;2023-08-06T09:32:46;98298.31;;;18.04;90.50
39267;BME280;24967;51.154;13.812;2023-08-06T09:35:20;98308.78;;;18.13;91.18
39267;BME280;24967;51.154;13.812;2023-08-06T09:37:47;98304.31;;;18.06;91.43
39267;BME280;24967;51.154;13.812;2023-08-06T09:40:32;98299.28;;;17.80;91.33
39267;BME280;24967;51.154;13.812;2023-08-06T09:43:02;98295.34;;;17.82;91.93
39267;BME280;24967;51.154;13.812;2023-08-06T09:45:30;98298.25;;;18.23;90.64
39267;BME280;24967;51.154;13.812;2023-08-06T09:48:08;98300.94;;;18.23;92.28
39267;BME280;24967;51.154;13.812;2023-08-06T09:50:36;98303.91;;;18.33;91.83
39267;BME280;24967;51.154;13.812;2023-08-06T09:53:06;98291.28;;;18.45;90.98
39267;BME280;24967;51.154;13.812;2023-08-06T09:55:34;98288.38;;;18.59;88.29
39267;BME280;24967;51.154;13.812;2023-08-06T09:58:00;98286.00;;;18.39;90.77
39267;BME280;24967;51.154;13.812;2023-08-06T10:00:27;98285.06;;;18.33;88.02
39267;BME280;24967;51.154;13.812;2023-08-06T10:03:00;98283.22;;;18.34;87.08
39267;BME280;24967;51.154;13.812;2023-08-06T10:05:32;98285.44;;;18.37;87.14
39267;BME280;24967;51.154;13.812;2023-08-06T10:08:03;98282.00;;;18.18;89.59
39267;BME280;24967;51.154;13.812;2023-08-06T10:10:36;98277.63;;;18.05;90.24
39267;BME280;24967;51.154;13.812;2023-08-06T10:13:03;98278.97;;;17.84;90.80
39267;BME280;24967;51.154;13.812;2023-08-06T10:15:35;98274.38;;;18.15;87.69
39267;BME280;24967;51.154;13.812;2023-08-06T10:18:10;98267.78;;;17.99;90.00
39267;BME280;24967;51.154;13.812;2023-08-06T10:20:47;98271.94;;;18.13;92.59
39267;BME280;24967;51.154;13.812;2023-08-06T10:23:20;98269.53;;;18.47;91.12
39267;BME280;24967;51.154;13.812;2023-08-06T10:26:03;98265.19;;;18.34;90.88
39267;BME280;24967;51.154;13.812;2023-08-06T10:28:36;98264.63;;;18.56;89.04
39267;BME280;24967;51.154;13.812;2023-08-06T10:31:03;98259.47;;;18.66;88.02
39267;BME280;24967;51.154;13.812;2023-08-06T10:33:40;98262.16;;;18.66;88.76
39267;BME280;24967;51.154;13.812;2023-08-06T10:36:10;98254.13;;;18.77;89.74
39267;BME280;24967;51.154;13.812;2023-08-06T10:38:44;98249.53;;;18.66;87.61
39267;BME280;24967;51.154;13.812;2023-08-06T10:41:28;98249.50;;;18.19;89.57
39267;BME280;24967;51.154;13.812;2023-08-06T10:44:06;98240.59;;;18.30;87.05
39267;BME280;24967;51.154;13.812;2023-08-06T10:46:34;98236.31;;;18.65;87.38
39267;BME280;24967;51.154;13.812;2023-08-06T10:49:09;98230.69;;;18.54;86.92
39267;BME280;24967;51.154;13.812;2023-08-06T10:51:41;98237.84;;;18.37;88.34
39267;BME280;24967;51.154;13.812;2023-08-06T10:54:12;98231.50;;;18.31;88.94
39267;BME280;24967;51.154;13.812;2023-08-06T10:56:39;98220.28;;;18.58;88.28
39267;BME280;24967;51.154;13.812;2023-08-06T10:59:06;98226.50;;;18.47;89.49
39267;BME280;24967;51.154;13.812;2023-08-06T11:01:35;98232.56;;;18.54;88.94
39267;BME280;24967;51.154;13.812;2023-08-06T11:04:02;98222.03;;;18.41;90.69
39267;BME280;24967;51.154;13.812;2023-08-06T11:06:32;98219.22;;;18.47;88.11
39267;BME280;24967;51.154;13.812;2023-08-06T11:09:06;98216.53;;;18.36;89.21
39267;BME280;24967;51.154;13.812;2023-08-06T11:11:32;98218.28;;;18.42;89.95
39267;BME280;24967;51.154;13.812;2023-08-06T11:14:07;98211.97;;;18.36;89.20
39267;BME280;24967;51.154;13.812;2023-08-06T11:16:40;98212.34;;;18.75;86.61
39267;BME280;24967;51.154;13.812;2023-08-06T11:19:07;98206.47;;;18.66;88.41
39267;BME280;24967;51.154;13.812;2023-08-06T11:21:33;98216.06;;;18.97;86.39
39267;BME280;24967;51.154;13.812;2023-08-06T11:24:15;98207.09;;;18.80;87.80
39267;BME280;24967;51.154;13.812;2023-08-06T11:26:41;98205.44;;;18.67;88.25
39267;BME280;24967;51.154;13.812;2023-08-06T11:29:09;98204.28;;;18.75;86.45
39267;BME280;24967;51.154;13.812;2023-08-06T11:31:35;98206.47;;;18.90;86.09
39267;BME280;24967;51.154;13.812;2023-08-06T11:34:02;98201.78;;;18.97;86.37
39267;BME280;24967;51.154;13.812;2023-08-06T11:36:28;98198.22;;;19.20;85.41
39267;BME280;24967;51.154;13.812;2023-08-06T11:38:55;98204.09;;;19.05;83.83
39267;BME280;24967;51.154;13.812;2023-08-06T11:41:23;98199.16;;;19.14;85.10
39267;BME280;24967;51.154;13.812;2023-08-06T11:43:49;98195.69;;;19.02;84.11
39267;BME280;24967;51.154;13.812;2023-08-06T11:46:16;98202.50;;;18.69;84.92
39267;BME280;24967;51.154;13.812;2023-08-06T11:48:52;98207.31;;;18.55;85.82
39267;BME280;24967;51.154;13.812;2023-08-06T11:51:18;98198.66;;;18.88;86.78
39267;BME280;24967;51.154;13.812;2023-08-06T11:56:52;98208.19;;;19.08;86.22
39267;BME280;24967;51.154;13.812;2023-08-06T11:59:20;98203.72;;;19.25;82.90
39267;BME280;24967;51.154;13.812;2023-08-06T12:01:47;98205.53;;;18.96;83.69
39267;BME280;24967;51.154;13.812;2023-08-06T12:04:14;98202.59;;;19.09;83.10
39267;BME280;24967;51.154;13.812;2023-08-06T12:06:41;98204.81;;;19.12;82.08
39267;BME280;24967;51.154;13.812;2023-08-06T12:09:08;98201.38;;;19.17;83.18
39267;BME280;24967;51.154;13.812;2023-08-06T12:11:35;98208.50;;;19.23;83.03
39267;BME280;24967;51.154;13.812;2023-08-06T12:14:03;98199.63;;;19.22;83.36
39267;BME280;24967;51.154;13.812;2023-08-06T12:16:29;98197.84;;;19.28;84.06
39267;BME280;24967;51.154;13.812;2023-08-06T12:18:55;98192.41;;;19.40;84.07
39267;BME280;24967;51.154;13.812;2023-08-06T12:21:21;98199.09;;;19.37;84.31
39267;BME280;24967;51.154;13.812;2023-08-06T12:23:48;98194.03;;;19.41;81.12
39267;BME280;24967;51.154;13.812;2023-08-06T12:26:15;98192.59;;;19.50;80.42
39267;BME280;24967;51.154;13.812;2023-08-06T12:28:41;98195.78;;;19.47;81.17
39267;BME280;24967;51.154;13.812;2023-08-06T12:31:09;98196.88;;;19.63;80.24
39267;BME280;24967;51.154;13.812;2023-08-06T12:33:35;98191.88;;;19.26;80.61
39267;BME280;24967;51.154;13.812;2023-08-06T12:36:01;98185.78;;;19.31;81.22
39267;BME280;24967;51.154;13.812;2023-08-06T12:38:28;98185.03;;;19.35;80.10
39267;BME280;24967;51.154;13.812;2023-08-06T12:40:57;98188.81;;;19.34;81.43
39267;BME280;24967;51.154;13.812;2023-08-06T12:43:24;98178.72;;;19.01;82.86
39267;BME280;24967;51.154;13.812;2023-08-06T12:45:50;98180.91;;;19.44;80.83
39267;BME280;24967;51.154;13.812;2023-08-06T12:48:18;98177.91;;;19.29;79.39
39267;BME280;24967;51.154;13.812;2023-08-06T12:50:44;98178.50;;;19.31;78.40
39267;BME280;24967;51.154;13.812;2023-08-06T12:53:11;98174.22;;;19.47;81.17
39267;BME280;24967;51.154;13.812;2023-08-06T12:55:37;98168.16;;;19.40;79.04
39267;BME280;24967;51.154;13.812;2023-08-06T12:58:05;98170.66;;;19.58;78.30
39267;BME280;24967;51.154;13.812;2023-08-06T13:00:32;98169.06;;;19.74;77.67
39267;BME280;24967;51.154;13.812;2023-08-06T13:02:59;98170.00;;;19.80;78.46
39267;BME280;24967;51.154;13.812;2023-08-06T13:05:26;98168.69;;;19.82;78.21
39267;BME280;24967;51.154;13.812;2023-08-06T13:07:53;98173.59;;;20.02;76.77